• Join FlightAware (Why Join?)
  • Login
  • US Flag 
01:18AM EDT


 

Airport Tracker/Info


-or-


 

Live Flight TrackerFlight Track Log ✈ QFA476 ✈ 25-May-2012 ✈ YPPH / PER - YMML / MEL

Flight Track Log - Related Links

Times and Time Zones

All times are in EDT time to prevent confusion due to time zone crossing. See the QFA476 flight status page for this flight to view local times or setup timezone preferences in your user account.

Time Position Orientation Groundspeed Altitude Reporting Facility
EDT Latitude Longitude Course Direction KTS MPH feet Rate Location/Type
02:10AM -32.6372 118.1021 111° Southeast  Level Estimated
02:11AM -32.6808 118.2407 110° East  Level Estimated
02:12AM -32.7243 118.3794 110° East  Level Estimated
02:13AM -32.7676 118.5182 110° East  Level Estimated
02:14AM -32.8108 118.6572 110° East  Level Estimated
02:15AM -32.8538 118.7963 110° East  Level Estimated
02:16AM -32.8967 118.9356 110° East  Level Estimated
02:17AM -32.9394 119.0750 110° East  Level Estimated
02:18AM -32.9819 119.2145 110° East  Level Estimated
02:19AM -33.0243 119.3542 110° East  Level Estimated
02:20AM -33.0666 119.4939 110° East  Level Estimated
02:21AM -33.1086 119.6339 110° East  Level Estimated
02:22AM -33.1506 119.7739 110° East  Level Estimated
02:23AM -33.1923 119.9141 110° East  Level Estimated
02:24AM -33.2340 120.0545 109° East  Level Estimated
02:25AM -33.2754 120.1949 109° East  Level Estimated
02:26AM -33.3167 120.3355 109° East  Level Estimated
02:27AM -33.3578 120.4762 109° East  Level Estimated
02:28AM -33.3988 120.6171 109° East  Level Estimated
02:29AM -33.4397 120.7581 109° East  Level Estimated
02:30AM -33.4803 120.8992 109° East  Level Estimated
02:31AM -33.5208 121.0405 109° East  Level Estimated
02:32AM -33.5611 121.1818 109° East  Level Estimated
02:33AM -33.6013 121.3234 109° East  Level Estimated
02:34AM -33.6413 121.4650 109° East  Level Estimated
02:35AM -33.6812 121.6068 109° East  Level Estimated
02:36AM -33.7209 121.7487 109° East  Level Estimated
02:37AM -33.7604 121.8908 108° East  Level Estimated
02:38AM -33.7998 122.0329 108° East  Level Estimated
02:39AM -33.8390 122.1752 108° East  Level Estimated
02:40AM -33.8781 122.3177 108° East  Level Estimated
02:41AM -33.9169 122.4603 108° East  Level Estimated
02:42AM -33.9556 122.6030 108° East  Level Estimated
02:43AM -33.9942 122.7458 108° East  Level Estimated
02:44AM -34.0326 122.8887 108° East  Level Estimated
02:45AM -34.0708 123.0318 108° East  Level Estimated
02:46AM -34.1088 123.1750 108° East  Level Estimated
02:47AM -34.1467 123.3184 108° East  Level Estimated
02:48AM -34.1844 123.4619 108° East  Level Estimated
02:49AM -34.2220 123.6055 108° East  Level Estimated
02:50AM -34.2594 123.7492 107° East  Level Estimated
02:51AM -34.2966 123.8930 107° East  Level Estimated
02:52AM -34.3336 124.0370 107° East  Level Estimated
02:53AM -34.3705 124.1811 107° East  Level Estimated
02:54AM -34.4072 124.3254 107° East  Level Estimated
02:55AM -34.4438 124.4697 107° East  Level Estimated
02:56AM -34.4801 124.6142 107° East  Level Estimated
02:57AM -34.5163 124.7588 107° East  Level Estimated
02:58AM -34.5524 124.9036 107° East  Level Estimated
02:59AM -34.5882 125.0484 107° East  Level Estimated
03:00AM -34.6239 125.1934 107° East  Level Estimated
03:01AM -34.6595 125.3385 107° East  Level Estimated
03:02AM -34.6948 125.4838 106° East  Level Estimated
03:03AM -34.7300 125.6291 106° East  Level Estimated
03:04AM -34.7650 125.7746 106° East  Level Estimated
03:05AM -34.7998 125.9202 106° East  Level Estimated
03:06AM -34.8344 126.0660 106° East  Level Estimated
03:07AM -34.8689 126.2118 106° East  Level Estimated
03:08AM -34.9032 126.3578 106° East  Level Estimated
03:09AM -34.9374 126.5039 106° East  Level Estimated
03:10AM -34.9713 126.6501 106° East  Level Estimated
03:11AM -35.0051 126.7965 106° East  Level Estimated
03:12AM -35.0387 126.9429 106° East  Level Estimated
03:13AM -35.0721 127.0895 106° East  Level Estimated
03:14AM -35.1054 127.2362 105° East  Level Estimated
03:15AM -35.1384 127.3830 105° East  Level Estimated
03:16AM -35.1713 127.5300 105° East  Level Estimated
03:17AM -35.2040 127.6770 105° East  Level Estimated
03:18AM -35.2366 127.8242 105° East  Level Estimated
03:19AM -35.2690 127.9715 105° East  Level Estimated
03:20AM -35.3011 128.1189 105° East  Level Estimated
03:21AM -35.3331 128.2664 105° East  Level Estimated
03:22AM -35.3649 128.4141 105° East  Level Estimated
03:23AM -35.3966 128.5618 105° East  Level Estimated
03:24AM -35.4281 128.7097 105° East  Level Estimated
03:25AM -35.4593 128.8577 105° East  Level Estimated
03:26AM -35.4904 129.0058 104° East  Level Estimated
03:27AM -35.5214 129.1540 104° East  Level Estimated
03:28AM -35.5521 129.3023 104° East  Level Estimated
03:29AM -35.5827 129.4508 104° East  Level Estimated
03:30AM -35.6130 129.5993 104° East  Level Estimated
03:31AM -35.6432 129.7480 104° East  Level Estimated
03:32AM -35.6732 129.8968 104° East  Level Estimated
03:33AM -35.7031 130.0457 104° East  Level Estimated
03:34AM -35.7327 130.1947 104° East  Level Estimated
03:35AM -35.7622 130.3438 104° East  Level Estimated
03:36AM -35.7915 130.4931 104° East  Level Estimated
03:37AM -35.8205 130.6424 103° East  Level Estimated
03:38AM -35.8495 130.7919 103° East  Level Estimated
03:39AM -35.8782 130.9414 103° East  Level Estimated
03:40AM -35.9067 131.0911 103° East  Level Estimated
03:41AM -35.9351 131.2408 103° East  Level Estimated
03:42AM -35.9632 131.3907 103° East  Level Estimated
03:43AM -35.9912 131.5407 103° East  Level Estimated
03:44AM -36.0190 131.6908 103° East  Level Estimated
03:45AM -36.0466 131.8410 103° East  Level Estimated
03:46AM -36.0740 131.9913 103° East  Level Estimated
03:47AM -36.1013 132.1417 103° East  Level Estimated
03:48AM -36.1283 132.2922 102° East  Level Estimated
03:49AM -36.1552 132.4428 102° East  Level Estimated
03:50AM -36.1818 132.5935 102° East  Level Estimated
03:51AM -36.2083 132.7444 102° East  Level Estimated
03:52AM -36.2346 132.8953 102° East  Level Estimated
03:53AM -36.2607 133.0463 102° East  Level Estimated
03:54AM -36.2866 133.1974 102° East  Level Estimated
03:55AM -36.3123 133.3486 102° East  Level Estimated
03:56AM -36.3378 133.4999 102° East  Level Estimated
03:57AM -36.3632 133.6514 102° East  Level Estimated
03:58AM -36.3883 133.8029 102° East  Level Estimated
03:59AM -36.4132 133.9545 102° East  Level Estimated
04:00AM -36.4380 134.1062 101° East  Level Estimated
04:01AM -36.4626 134.2580 101° East  Level Estimated
04:02AM -36.4870 134.4099 101° East  Level Estimated
04:03AM -36.5111 134.5619 101° East  Level Estimated
04:04AM -36.5351 134.7140 101° East  Level Estimated
04:05AM -36.5589 134.8662 101° East  Level Estimated
04:06AM -36.5825 135.0185 101° East  Level Estimated
04:07AM -36.6059 135.1709 101° East  Level Estimated
04:08AM -36.6292 135.3233 101° East  Level Estimated
04:09AM -36.6522 135.4759 101° East  Level Estimated
04:10AM -36.6750 135.6286 101° East  Level Estimated
04:11AM -36.6976 135.7813 100° East  Level Estimated
04:12AM -36.7201 135.9341 100° East  Level Estimated
04:13AM -36.7423 136.0871 100° East  Level Estimated
04:14AM -36.7644 136.2401 100° East  Level Estimated
04:15AM -36.7862 136.3932 100° East  Level Estimated
04:16AM -36.8079 136.5463 100° East  Level Estimated
04:17AM -36.8293 136.6996 100° East  Level Estimated
04:18AM -36.8506 136.8530 100° East  Level Estimated
04:19AM -36.8717 137.0064 100° East  Level Estimated
04:20AM -36.8925 137.1599 100° East  Level Estimated
04:21AM -36.9132 137.3135 100° East  Level Estimated
04:22AM -36.9337 137.4672 99° East  Level Estimated
04:23AM -36.9539 137.6210 99° East  Level Estimated
04:24AM -36.9740 137.7749 99° East  Level Estimated
04:25AM -36.9939 137.9288 99° East  Level Estimated
04:26AM -37.0135 138.0828 99° East  Level Estimated
04:27AM -37.0330 138.2369 99° East  Level Estimated
04:28AM -37.0523 138.3911 99° East  Level Estimated
04:29AM -37.0714 138.5453 99° East  Level Estimated
04:30AM -37.0903 138.6996 99° East  Level Estimated
04:31AM -37.1090 138.8540 99° East  Level Estimated
04:32AM -37.1274 139.0085 98° East  Level Estimated
04:33AM -37.1457 139.1631 98° East  Level Estimated
04:34AM -37.1638 139.3177 98° East  Level Estimated
04:35AM -37.1817 139.4724 98° East  Level Estimated
04:36AM -37.1993 139.6272 98° East  Level Estimated
04:37AM -37.2168 139.7820 98° East  Level Estimated
04:38AM -37.2341 139.9370 98° East  Level Estimated
04:39AM -37.2511 140.0919 98° East  Level Estimated
04:40AM -37.2680 140.2470 98° East  Level Estimated
04:41AM -37.2847 140.4021 98° East  Level Estimated
04:42AM -37.3011 140.5573 98° East  Level Estimated
04:43AM -37.3174 140.7126 97° East  Level Estimated
04:44AM -37.3335 140.8680 97° East  Level Estimated
04:45AM -37.3493 141.0233 97° East  Level Estimated
04:46AM -37.3649 141.1788 97° East  Level Estimated
04:47AM -37.3804 141.3343 97° East  Level Estimated
04:48AM -37.3956 141.4899 97° East  Level Estimated
04:49AM -37.4107 141.6456 97° East  Level Estimated
04:50AM -37.4255 141.8013 97° East  Level Estimated
04:51AM -37.4401 141.9571 97° East  Level Estimated
04:52AM -37.4546 142.1129 97° East  Level Estimated
04:53AM -37.4688 142.2688 97° East  Level Estimated
04:54AM -37.4828 142.4247 96° East  Level Estimated
04:55AM -37.4966 142.5808 96° East  Level Estimated
04:56AM -37.5102 142.7368 96° East  Level Estimated
04:57AM -37.5236 142.8930 96° East  Level Estimated
04:58AM -37.5368 143.0491 96° East  Level Estimated
04:59AM -37.5498 143.2054 96° East  Level Estimated
05:00AM -37.5626 143.3617 96° East  Level Estimated
05:01AM -37.5750 143.5164 96° East  Level Estimated
05:02AM -37.5873 143.6712 96° East  Level Estimated
05:03AM -37.5993 143.8261 96° East  Level Estimated
05:04AM -37.6112 143.9810 95° East  Level Estimated
05:05AM -37.6228 144.1360 95° East  Level Estimated
05:06AM -37.6342 144.2910 95° East  Level Estimated
05:07AM -37.6455 144.4460 95° East  Level Estimated
05:08AM -37.6565 144.6011 95° East  Level Estimated
05:09AM -37.6673 144.7563 95° East  Level Estimated
05:10AM -37.6780 144.9114 275° West  Level Estimated
05:11AM -37.6673 144.7563 95° East  Level Estimated
05:12AM -37.6780 144.9114 275° West  Level Estimated
05:13AM -37.6673 144.7563 95° East  Level Estimated
05:14AM -37.6780 144.9114 275° West  Level Estimated
05:15AM -37.6674 144.7578 95° East  Level Estimated
05:16AM -37.6780 144.9114 275° West  Level Estimated
05:17AM -37.6674 144.7578 95° East  Level Estimated
05:18AM -37.6780 144.9114 275° West  Level Estimated
05:19AM -37.6674 144.7578 95° East  Level Estimated
05:20AM -37.6780 144.9114 275° West  Level Estimated
05:21AM -37.6674 144.7578 95° East  Level Estimated
05:22AM -37.6780 144.9114 275° West  Level Estimated
05:23AM -37.6674 144.7578 95° East  Level Estimated
05:24AM -37.6780 144.9114 275° West  Level Estimated
05:25AM -37.6674 144.7578 95° East  Level Estimated
05:26AM -37.6780 144.9114 275° West  Level Estimated
05:27AM -37.6674 144.7578 95° East  Level Estimated
05:28AM -37.6780 144.9114 275° West  Level Estimated
05:29AM -37.6674 144.7578 275° West  Level Estimated